Time;durP1;ratioP1;P1;durP2;ratioP2;P2;SDS_P1;SDS_P2;PMS_P1;PMS_P2;Temp;Humidity;BMP_temperature;BMP_pressure;BME280_temperature;BME280_humidity;BME280_pressure;Samples;Min_cycle;Max_cycle;Signal;HPM_P1;HPM_P2
2024/01/31 00:01:33;;;;;;;10.50;4.82;;;;;;;2.90;69.54;94273.97;2071913;69;20179;-77
2024/01/31 00:03:58;;;;;;;12.55;5.00;;;;;;;3.00;68.77;94273.06;2075322;69;20152;-78
2024/01/31 00:06:24;;;;;;;11.77;4.90;;;;;;;2.82;69.47;94273.03;2075655;69;20488;-78
2024/01/31 00:08:50;;;;;;;10.77;4.80;;;;;;;2.89;69.48;94258.56;2075648;69;20257;-78
2024/01/31 00:11:15;;;;;;;9.68;4.32;;;;;;;3.06;68.67;94264.66;2075539;69;20637;-78
2024/01/31 00:13:41;;;;;;;10.10;4.68;;;;;;;3.01;68.83;94262.69;2075430;69;20174;-78
2024/01/31 00:16:07;;;;;;;9.30;4.20;;;;;;;3.17;68.43;94258.97;2075375;69;20136;-78
2024/01/31 00:18:33;;;;;;;9.13;4.45;;;;;;;3.21;68.53;94262.22;2075427;69;20227;-78
2024/01/31 00:20:59;;;;;;;7.72;3.90;;;;;;;3.26;68.46;94261.38;2072057;69;20191;-78
2024/01/31 00:23:24;;;;;;;10.00;4.43;;;;;;;3.03;68.96;94265.72;2071828;69;20174;-78
2024/01/31 00:25:51;;;;;;;11.27;4.57;;;;;;;3.32;68.51;94258.53;2075351;69;20136;-78
2024/01/31 00:28:16;;;;;;;7.05;4.28;;;;;;;3.38;68.29;94256.41;2075542;69;20317;-78
2024/01/31 00:30:42;;;;;;;8.73;4.38;;;;;;;3.41;68.25;94258.16;2071934;69;20582;-78
2024/01/31 00:33:08;;;;;;;11.40;4.43;;;;;;;3.45;68.23;94253.03;2071988;69;20136;-78
2024/01/31 00:35:33;;;;;;;11.38;5.07;;;;;;;2.51;71.77;94259.19;2075543;69;20159;-78
2024/01/31 00:38:00;;;;;;;9.65;4.97;;;;;;;3.00;69.98;94258.41;2075592;69;20171;-78
2024/01/31 00:40:25;;;;;;;12.18;5.28;;;;;;;3.23;69.20;94244.97;2075633;69;20575;-78
2024/01/31 00:42:51;;;;;;;8.45;4.32;;;;;;;3.06;69.50;94250.75;2075329;69;20142;-78
2024/01/31 00:45:17;;;;;;;9.15;4.72;;;;;;;3.23;69.18;94253.34;2075651;69;20590;-78
2024/01/31 00:47:43;;;;;;;9.45;4.45;;;;;;;3.27;68.98;94239.88;2075234;69;20148;-78
2024/01/31 00:50:12;;;;;;;8.60;4.43;;;;;;;3.38;68.63;94258.44;2075502;69;20155;-77
2024/01/31 00:52:40;;;;;;;11.60;4.78;;;;;;;3.43;68.59;94266.72;2075403;69;20144;-77
2024/01/31 00:55:07;;;;;;;9.77;4.50;;;;;;;3.42;68.77;94256.13;2069396;69;20155;-78
2024/01/31 00:57:32;;;;;;;7.45;3.92;;;;;;;3.47;68.60;94258.81;2075403;69;20212;-77
2024/01/31 00:59:58;;;;;;;8.65;4.65;;;;;;;2.92;70.91;94266.59;2075532;69;20560;-77
2024/01/31 01:02:24;;;;;;;9.20;4.95;;;;;;;3.01;71.21;94262.69;2075327;69;20231;-77
2024/01/31 01:04:52;;;;;;;11.85;4.97;;;;;;;2.91;70.38;94278.25;2075494;69;20262;-77
2024/01/31 01:07:18;;;;;;;9.70;4.47;;;;;;;3.22;69.70;94279.66;2075338;69;20132;-77
2024/01/31 01:09:44;;;;;;;8.63;4.13;;;;;;;3.33;69.54;94268.38;2069052;69;20580;-77
2024/01/31 01:12:09;;;;;;;9.35;4.55;;;;;;;3.40;69.18;94267.03;2071842;69;20191;-77
2024/01/31 01:14:35;;;;;;;7.53;4.25;;;;;;;3.47;69.19;94269.22;2071843;69;20209;-78
2024/01/31 01:17:04;;;;;;;8.38;4.38;;;;;;;3.12;70.17;94261.84;2075300;69;20152;-78
2024/01/31 01:19:33;;;;;;;9.93;4.75;;;;;;;3.44;69.03;94261.94;2075288;69;20143;-78
2024/01/31 01:22:00;;;;;;;9.02;4.13;;;;;;;3.48;69.14;94271.50;2075095;69;20203;-78
2024/01/31 01:24:30;;;;;;;8.85;4.47;;;;;;;3.46;69.36;94264.94;2075097;69;20266;-77
2024/01/31 01:26:59;;;;;;;9.25;4.18;;;;;;;3.61;68.62;94261.69;2075039;69;21009;-77
2024/01/31 01:29:32;;;;;;;9.88;3.97;;;;;;;3.51;68.31;94264.09;2075448;69;20136;-79
2024/01/31 01:32:00;;;;;;;9.00;4.10;;;;;;;3.65;67.82;94260.09;2074779;69;20183;-78
2024/01/31 01:34:27;;;;;;;10.02;4.07;;;;;;;3.63;68.20;94251.53;2075303;69;20261;-79
2024/01/31 01:37:00;;;;;;;10.45;4.55;;;;;;;3.64;68.05;94260.63;2075338;69;20124;-78
2024/01/31 01:39:26;;;;;;;7.35;4.18;;;;;;;3.60;68.16;94258.16;2075378;69;20148;-77
2024/01/31 01:41:56;;;;;;;11.10;4.88;;;;;;;3.43;68.96;94265.97;2075444;69;20201;-78
2024/01/31 01:44:23;;;;;;;11.98;4.10;;;;;;;3.40;68.86;94255.91;2071629;69;20156;-78
2024/01/31 01:46:49;;;;;;;7.03;4.15;;;;;;;3.42;69.08;94270.78;2075511;69;20148;-78
2024/01/31 01:49:16;;;;;;;10.02;4.43;;;;;;;3.22;68.70;94237.91;2075188;69;20147;-77
2024/01/31 01:51:44;;;;;;;9.15;4.60;;;;;;;3.37;68.94;94274.41;2075217;69;20254;-77
2024/01/31 01:54:12;;;;;;;9.93;4.65;;;;;;;3.42;68.76;94276.34;2075249;69;20172;-78
2024/01/31 01:56:43;;;;;;;8.30;4.28;;;;;;;3.19;69.40;94272.34;2075048;69;20136;-78
2024/01/31 01:59:10;;;;;;;6.82;3.88;;;;;;;3.34;68.33;94275.44;2071901;69;20136;-78
2024/01/31 02:01:37;;;;;;;9.60;4.47;;;;;;;3.42;67.99;94270.78;2071978;69;20182;-78
2024/01/31 02:04:05;;;;;;;9.65;4.60;;;;;;;3.19;69.44;94278.66;2074838;69;20293;-78
2024/01/31 02:06:31;;;;;;;9.35;4.47;;;;;;;3.08;69.21;94273.25;2075137;69;20152;-78
2024/01/31 02:08:56;;;;;;;8.40;4.40;;;;;;;3.06;69.22;94273.00;2075668;69;20571;-77
2024/01/31 02:11:22;;;;;;;7.82;4.28;;;;;;;3.09;68.80;94269.19;2075375;69;20195;-77
2024/01/31 02:13:48;;;;;;;7.50;4.05;;;;;;;3.06;69.72;94267.44;2075503;69;20159;-78
2024/01/31 02:16:13;;;;;;;7.40;4.43;;;;;;;2.97;69.95;94267.81;2075271;69;20151;-78
2024/01/31 02:18:39;;;;;;;9.75;4.40;;;;;;;2.99;69.49;94263.22;2075031;69;20187;-78
2024/01/31 02:21:05;;;;;;;9.73;4.18;;;;;;;2.99;70.21;94260.44;2075193;69;20621;-78
2024/01/31 02:23:30;;;;;;;8.73;4.25;;;;;;;2.91;69.49;94259.53;2075208;69;20163;-78
2024/01/31 02:25:56;;;;;;;6.70;3.90;;;;;;;2.89;70.42;94256.53;2075306;69;20183;-78
2024/01/31 02:28:21;;;;;;;7.35;4.00;;;;;;;2.87;70.30;94261.84;2074851;69;20575;-78
2024/01/31 02:30:47;;;;;;;7.50;3.40;;;;;;;2.86;69.67;94257.56;2075234;69;20144;-77
2024/01/31 02:33:13;;;;;;;6.93;3.42;;;;;;;2.80;69.73;94260.41;2074854;69;20213;-78
2024/01/31 02:35:38;;;;;;;7.03;3.80;;;;;;;2.75;70.02;94247.31;2075438;69;20242;-77
2024/01/31 02:38:04;;;;;;;7.95;3.40;;;;;;;2.66;70.24;94249.72;2075037;69;20519;-78
2024/01/31 02:40:30;;;;;;;6.20;3.00;;;;;;;2.69;69.88;94252.19;2075240;69;20155;-78
2024/01/31 02:42:57;;;;;;;6.93;3.28;;;;;;;2.74;70.12;94254.16;2075041;69;20518;-77
2024/01/31 02:45:23;;;;;;;6.13;3.60;;;;;;;2.49;70.10;94236.72;2075078;69;20163;-78
2024/01/31 02:47:50;;;;;;;7.05;3.85;;;;;;;2.43;70.24;94224.13;2074971;69;20219;-78
2024/01/31 02:50:16;;;;;;;9.27;3.97;;;;;;;2.36;71.23;94246.97;2071426;69;20282;-78
2024/01/31 02:52:41;;;;;;;8.15;3.85;;;;;;;2.33;70.94;94234.84;2071865;69;20143;-79
2024/01/31 02:55:08;;;;;;;6.93;3.53;;;;;;;2.36;70.79;94236.59;2075168;69;20232;-78
2024/01/31 02:57:34;;;;;;;7.10;3.50;;;;;;;2.35;71.10;94229.53;2075299;69;20144;-77
2024/01/31 03:00:04;;;;;;;8.23;3.90;;;;;;;2.36;71.23;94230.28;2075195;69;20242;-77
2024/01/31 03:02:30;;;;;;;7.80;3.60;;;;;;;2.38;70.61;94233.28;2071504;69;20728;-78
2024/01/31 03:04:56;;;;;;;7.20;3.47;;;;;;;2.37;70.61;94231.78;2075198;69;20162;-78
2024/01/31 03:07:21;;;;;;;7.28;3.65;;;;;;;2.35;70.10;94231.56;2074939;69;20554;-78
2024/01/31 03:09:47;;;;;;;6.97;3.75;;;;;;;2.20;70.38;94237.50;2075452;69;20710;-78
2024/01/31 03:12:12;;;;;;;6.70;3.63;;;;;;;2.29;70.34;94240.72;2075189;69;20151;-78
2024/01/31 03:14:38;;;;;;;8.32;3.83;;;;;;;2.21;70.44;94236.25;2074773;69;20152;-77
2024/01/31 03:17:04;;;;;;;6.38;3.47;;;;;;;2.20;70.37;94235.50;2075100;69;20148;-77
2024/01/31 03:19:32;;;;;;;6.07;3.40;;;;;;;2.18;70.46;94223.38;2075113;69;20606;-78
2024/01/31 03:21:58;;;;;;;5.80;3.45;;;;;;;1.77;71.31;94218.69;2075111;69;20152;-78
2024/01/31 03:24:24;;;;;;;8.48;3.50;;;;;;;1.97;71.58;94223.06;2068474;69;20600;-76
2024/01/31 03:26:50;;;;;;;7.75;3.15;;;;;;;2.04;70.81;94219.72;2075035;69;20279;-76
2024/01/31 03:29:16;;;;;;;7.07;3.40;;;;;;;2.00;71.35;94224.81;2075233;69;20160;-76
2024/01/31 03:31:47;;;;;;;6.30;3.33;;;;;;;2.01;71.32;94227.06;2075004;69;20217;-78
2024/01/31 03:34:14;;;;;;;5.97;3.50;;;;;;;1.93;71.83;94214.28;2071919;69;20138;-77
2024/01/31 03:36:40;;;;;;;6.60;3.40;;;;;;;1.93;72.37;94219.81;2074833;69;20156;-77
2024/01/31 03:39:06;;;;;;;6.10;3.65;;;;;;;1.95;71.49;94229.13;2075029;69;20136;-78
2024/01/31 03:41:31;;;;;;;6.72;3.15;;;;;;;2.02;71.86;94230.59;2074907;69;20508;-77
2024/01/31 03:43:57;;;;;;;6.15;3.30;;;;;;;1.87;71.59;94225.41;2071375;69;20662;-77
2024/01/31 03:46:24;;;;;;;7.65;3.20;;;;;;;1.89;71.69;94231.22;2074951;69;20148;-77
2024/01/31 03:48:51;;;;;;;7.20;3.40;;;;;;;1.96;71.16;94236.19;2075082;69;20599;-77
2024/01/31 03:51:20;;;;;;;6.50;3.50;;;;;;;1.62;71.71;94235.69;2075122;69;20598;-77
2024/01/31 03:53:48;;;;;;;7.88;3.60;;;;;;;1.86;71.54;94231.47;2074924;69;20155;-77
2024/01/31 03:56:16;;;;;;;5.25;3.30;;;;;;;1.94;70.92;94230.41;2074852;69;20140;-78
2024/01/31 03:58:43;;;;;;;7.18;3.13;;;;;;;1.84;70.66;94228.47;2075173;69;20140;-77
2024/01/31 04:01:09;;;;;;;9.45;3.30;;;;;;;1.82;71.26;94233.78;2075070;69;20230;-77
2024/01/31 04:03:36;;;;;;;5.85;3.20;;;;;;;1.83;70.63;94240.84;2074910;69;20162;-77
2024/01/31 04:06:02;;;;;;;7.85;3.85;;;;;;;1.78;71.62;94248.69;2075321;69;20234;-78
2024/01/31 04:08:28;;;;;;;6.80;3.67;;;;;;;1.74;71.52;94244.69;2074765;69;20167;-77
2024/01/31 04:10:54;;;;;;;7.85;4.72;;;;;;;1.76;70.88;94247.72;2074933;69;20140;-77
2024/01/31 04:13:19;;;;;;;9.02;4.97;;;;;;;1.56;71.69;94248.09;2071620;69;20641;-77
2024/01/31 04:15:47;;;;;;;10.93;4.70;;;;;;;1.60;72.42;94245.81;2075027;69;20302;-77
2024/01/31 04:18:13;;;;;;;9.18;5.15;;;;;;;1.70;72.49;94239.44;2074641;69;20152;-77
2024/01/31 04:20:39;;;;;;;9.27;5.30;;;;;;;1.84;71.86;94245.91;2074760;69;20162;-78
2024/01/31 04:23:06;;;;;;;9.90;5.05;;;;;;;1.56;72.45;94243.31;2075034;69;20526;-78
2024/01/31 04:25:32;;;;;;;11.02;5.05;;;;;;;1.67;72.57;94240.47;2075024;69;20214;-80
2024/01/31 04:27:58;;;;;;;9.70;4.72;;;;;;;1.78;71.81;94240.38;2074920;69;20270;-80
2024/01/31 04:30:23;;;;;;;8.85;4.47;;;;;;;1.69;71.53;94234.38;2075021;69;20201;-77
2024/01/31 04:32:50;;;;;;;10.80;4.60;;;;;;;1.80;72.22;94241.91;2075451;69;20191;-77
2024/01/31 04:35:20;;;;;;;9.55;4.82;;;;;;;1.84;72.28;94243.13;2075455;69;20164;-78
2024/01/31 04:37:46;;;;;;;10.50;3.90;;;;;;;1.63;72.57;94239.97;2075585;69;20156;-77
2024/01/31 04:40:12;;;;;;;5.97;3.72;;;;;;;1.65;72.24;94236.69;2075330;69;20631;-78
2024/01/31 04:42:38;;;;;;;6.18;3.38;;;;;;;1.70;72.12;94242.22;2075165;69;20648;-78
2024/01/31 04:45:04;;;;;;;7.20;4.15;;;;;;;1.27;72.50;94228.84;2071900;69;20156;-78
2024/01/31 04:47:31;;;;;;;7.30;4.20;;;;;;;1.66;72.38;94244.50;2075591;69;20233;-79
2024/01/31 04:49:57;;;;;;;10.15;3.80;;;;;;;1.75;72.55;94249.75;2075574;69;20504;-79
2024/01/31 04:52:23;;;;;;;5.72;3.65;;;;;;;1.86;71.57;94251.69;2075823;69;20143;-79
2024/01/31 04:54:50;;;;;;;6.78;3.65;;;;;;;1.70;72.21;94258.88;2075783;69;20522;-79
2024/01/31 04:57:16;;;;;;;7.55;4.10;;;;;;;1.67;72.35;94262.66;2072279;69;20527;-78
2024/01/31 04:59:42;;;;;;;8.38;3.90;;;;;;;1.84;72.06;94245.16;2075700;69;20152;-79
2024/01/31 05:02:08;;;;;;;8.50;3.78;;;;;;;1.92;72.13;94248.84;2075509;69;20148;-79
2024/01/31 05:04:34;;;;;;;7.38;3.90;;;;;;;1.91;71.94;94252.91;2075703;69;20171;-79
2024/01/31 05:06:59;;;;;;;8.55;3.80;;;;;;;1.92;72.05;94249.59;2075739;69;20170;-79
2024/01/31 05:09:25;;;;;;;5.93;3.45;;;;;;;2.00;71.88;94249.81;2075731;69;20148;-79
2024/01/31 05:11:51;;;;;;;4.63;3.05;;;;;;;2.06;71.74;94252.53;2072431;69;20140;-79
2024/01/31 05:14:17;;;;;;;4.22;2.58;;;;;;;2.17;72.01;94247.63;2075681;69;20143;-79
2024/01/31 05:16:43;;;;;;;4.53;2.80;;;;;;;2.20;71.62;94248.63;2075588;69;20220;-79
2024/01/31 05:19:11;;;;;;;6.82;2.50;;;;;;;2.32;70.96;94254.84;2075664;69;20144;-79
2024/01/31 05:21:48;;;;;;;4.03;2.10;;;;;;;2.28;71.38;94244.75;2075555;69;20175;-79
2024/01/31 05:24:14;;;;;;;5.70;2.58;;;;;;;2.36;71.14;94249.75;2075514;69;20139;-79
2024/01/31 05:26:40;;;;;;;5.32;2.58;;;;;;;2.43;70.63;94243.59;2075594;69;20164;-79
2024/01/31 05:29:06;;;;;;;5.60;3.00;;;;;;;2.45;69.86;94239.03;2075646;69;20587;-79
2024/01/31 05:31:33;;;;;;;4.18;2.72;;;;;;;2.51;69.89;94247.31;2072137;69;20147;-79
2024/01/31 05:33:58;;;;;;;11.98;6.95;;;;;;;2.51;70.31;94247.31;2075332;69;20144;-78
2024/01/31 05:36:24;;;;;;;14.63;8.20;;;;;;;2.42;70.13;94234.50;2075430;69;20151;-79
2024/01/31 05:38:50;;;;;;;18.10;10.63;;;;;;;2.39;70.58;94235.56;2075665;69;20168;-79
2024/01/31 05:41:15;;;;;;;16.75;9.07;;;;;;;2.40;70.87;94236.31;2075580;69;20575;-79
2024/01/31 05:43:41;;;;;;;14.15;8.85;;;;;;;2.41;70.67;94240.59;2075567;69;20610;-79
2024/01/31 05:46:07;;;;;;;16.58;9.30;;;;;;;2.46;70.76;94239.78;2072148;69;20136;-79
2024/01/31 05:48:33;;;;;;;14.70;8.13;;;;;;;2.34;71.02;94214.16;2075397;69;20159;-79
2024/01/31 05:50:58;;;;;;;16.23;8.57;;;;;;;2.43;71.55;94227.69;2075203;69;20231;-78
2024/01/31 05:53:24;;;;;;;21.35;10.60;;;;;;;2.40;71.23;94237.06;2075599;69;20148;-79
2024/01/31 05:55:50;;;;;;;18.35;8.80;;;;;;;2.43;71.35;94244.38;2075441;69;20611;-79
2024/01/31 05:58:17;;;;;;;13.50;6.35;;;;;;;2.49;71.39;94247.84;2075392;69;20140;-79
2024/01/31 06:00:44;;;;;;;12.70;6.78;;;;;;;2.37;71.61;94249.22;2075386;69;20144;-79
2024/01/31 06:03:10;;;;;;;11.68;6.80;;;;;;;2.46;71.89;94248.13;2071925;69;20163;-79
2024/01/31 06:05:36;;;;;;;10.60;6.20;;;;;;;2.53;71.53;94258.69;2072021;69;20178;-78
2024/01/31 06:08:02;;;;;;;10.85;5.97;;;;;;;2.55;71.63;94254.09;2075346;69;20213;-79
2024/01/31 06:10:28;;;;;;;10.60;5.03;;;;;;;2.56;71.69;94243.72;2075330;69;20231;-78
2024/01/31 06:12:54;;;;;;;9.55;4.22;;;;;;;2.59;71.09;94242.69;2075357;69;20266;-78
2024/01/31 06:15:20;;;;;;;9.15;5.65;;;;;;;2.66;70.42;94249.72;2075210;69;20702;-79
2024/01/31 06:17:47;;;;;;;9.13;5.28;;;;;;;2.62;71.13;94247.22;2075317;69;20175;-77
2024/01/31 06:20:12;;;;;;;11.48;6.35;;;;;;;2.59;70.64;94250.28;2075603;69;20176;-78
2024/01/31 06:22:38;;;;;;;14.32;8.05;;;;;;;2.55;70.83;94261.69;2075482;69;20220;-79
2024/01/31 06:25:04;;;;;;;15.77;8.77;;;;;;;2.57;70.88;94256.38;2075568;69;20577;-79
2024/01/31 06:27:30;;;;;;;18.50;9.32;;;;;;;2.53;71.03;94251.09;2075550;69;20629;-78
2024/01/31 06:29:56;;;;;;;16.73;8.32;;;;;;;2.50;70.88;94245.81;2075783;69;20156;-80
2024/01/31 06:32:30;;;;;;;17.98;8.88;;;;;;;2.37;71.07;94226.22;2075579;69;20148;-77
2024/01/31 06:34:55;;;;;;;17.52;8.77;;;;;;;2.17;72.06;94238.56;2075679;69;20156;-76
2024/01/31 06:37:21;;;;;;;12.55;6.15;;;;;;;2.23;72.21;94250.34;2075547;69;20144;-76
2024/01/31 06:39:47;;;;;;;12.88;7.32;;;;;;;2.27;72.14;94261.94;2075560;69;20155;-76
2024/01/31 06:42:12;;;;;;;14.75;7.97;;;;;;;2.25;71.87;94265.25;2075521;69;20593;-77
2024/01/31 06:44:38;;;;;;;12.80;6.40;;;;;;;2.28;71.96;94266.97;2075472;69;20159;-76
2024/01/31 06:47:05;;;;;;;12.60;6.35;;;;;;;2.33;71.37;94279.31;2075484;69;20683;-76
2024/01/31 06:49:31;;;;;;;16.98;8.35;;;;;;;2.31;71.99;94279.09;2075629;69;20164;-76
2024/01/31 06:51:57;;;;;;;30.80;13.20;;;;;;;2.29;71.57;94285.19;2075508;69;20128;-76
2024/01/31 06:54:22;;;;;;;33.80;14.80;;;;;;;2.35;71.59;94287.16;2075505;69;20148;-77
2024/01/31 06:56:48;;;;;;;18.33;11.13;;;;;;;2.33;72.17;94289.69;2075518;69;20148;-78
2024/01/31 06:59:15;;;;;;;19.08;10.70;;;;;;;2.43;71.91;94282.50;2075577;69;20155;-77
2024/01/31 07:01:41;;;;;;;20.52;10.98;;;;;;;2.41;71.77;94280.25;2075452;69;20139;-77
2024/01/31 07:04:08;;;;;;;23.55;11.32;;;;;;;2.40;72.12;94280.78;2075514;69;20174;-78
2024/01/31 07:06:33;;;;;;;17.33;10.18;;;;;;;2.21;71.51;94256.44;2071978;69;20179;-78
2024/01/31 07:08:59;;;;;;;19.98;9.48;;;;;;;2.41;71.75;94280.25;2075390;69;20147;-77
2024/01/31 07:11:25;;;;;;;22.58;9.30;;;;;;;2.42;71.53;94276.19;2072035;69;20639;-78
2024/01/31 07:13:51;;;;;;;18.88;8.85;;;;;;;2.43;71.68;94276.94;2075368;69;20607;-77
2024/01/31 07:16:16;;;;;;;15.60;8.52;;;;;;;2.46;71.55;94271.13;2075514;69;20198;-77
2024/01/31 07:18:43;;;;;;;15.32;6.80;;;;;;;2.48;71.77;94274.16;2075255;69;20135;-78
2024/01/31 07:21:09;;;;;;;13.10;7.15;;;;;;;2.47;71.77;94277.44;2075338;69;20156;-78
2024/01/31 07:23:36;;;;;;;22.88;10.88;;;;;;;2.32;72.54;94272.25;2075149;69;20236;-79
2024/01/31 07:26:02;;;;;;;19.70;9.48;;;;;;;2.54;71.55;94282.44;2075239;69;20156;-77
2024/01/31 07:28:28;;;;;;;25.58;12.32;;;;;;;2.58;71.31;94276.59;2075256;69;20521;-77
2024/01/31 07:30:53;;;;;;;25.40;12.23;;;;;;;2.62;71.33;94277.06;2075427;69;20635;-77
2024/01/31 07:33:19;;;;;;;28.20;12.70;;;;;;;2.41;72.20;94285.81;2075316;69;20140;-76
2024/01/31 07:35:45;;;;;;;32.85;13.80;;;;;;;2.58;71.80;94298.81;2075615;69;20578;-77
2024/01/31 07:38:11;;;;;;;73.63;32.45;;;;;;;2.35;72.35;94293.47;2075450;69;20152;-76
2024/01/31 07:40:37;;;;;;;55.15;23.58;;;;;;;2.59;71.78;94286.44;2075373;69;20128;-77
2024/01/31 07:43:03;;;;;;;53.20;23.40;;;;;;;2.68;71.90;94300.75;2077648;69;20136;-77
2024/01/31 07:45:28;;;;;;;46.92;20.67;;;;;;;2.60;72.27;94293.47;2075298;69;20159;-77
2024/01/31 07:47:54;;;;;;;48.05;22.33;;;;;;;2.83;71.75;94299.56;2075241;69;20600;-77
2024/01/31 07:50:20;;;;;;;48.92;21.77;;;;;;;2.86;71.63;94290.94;2075679;69;20205;-78
2024/01/31 07:52:45;;;;;;;44.67;20.00;;;;;;;3.05;70.90;94296.56;2075762;69;20158;-76
2024/01/31 07:55:11;;;;;;;32.50;15.55;;;;;;;3.17;71.02;94291.63;2071952;69;20197;-78
2024/01/31 07:57:37;;;;;;;24.17;11.93;;;;;;;3.31;70.53;94296.75;2075296;69;20151;-77
2024/01/31 08:00:06;;;;;;;23.33;12.70;;;;;;;3.39;70.63;94296.13;2075315;69;20190;-76
2024/01/31 08:02:32;;;;;;;24.08;12.23;;;;;;;3.47;70.47;94286.66;2075970;69;20238;-75
2024/01/31 08:04:58;;;;;;;31.58;13.90;;;;;;;3.40;69.94;94292.84;2075414;69;20239;-75
2024/01/31 08:07:24;;;;;;;27.05;13.45;;;;;;;3.48;70.05;94288.19;2072389;69;20566;-75
2024/01/31 08:09:51;;;;;;;26.70;13.13;;;;;;;3.66;69.72;94288.69;2075793;69;20151;-79
2024/01/31 08:12:18;;;;;;;23.80;13.30;;;;;;;3.77;69.29;94286.53;2075822;69;20140;-76
2024/01/31 08:14:44;;;;;;;29.33;13.93;;;;;;;3.80;69.54;94287.47;2075843;69;20152;-77
2024/01/31 08:17:10;;;;;;;27.45;15.02;;;;;;;3.94;69.46;94289.06;2075691;69;20136;-76
2024/01/31 08:19:36;;;;;;;30.67;15.68;;;;;;;4.06;68.03;94284.06;2072349;69;20621;-77
2024/01/31 08:22:02;;;;;;;35.58;15.73;;;;;;;4.06;69.09;94295.97;2075661;69;20199;-77
2024/01/31 08:24:28;;;;;;;40.63;18.15;;;;;;;4.12;69.23;94281.19;2075833;69;20231;-76
2024/01/31 08:26:53;;;;;;;38.50;17.58;;;;;;;4.27;68.29;94281.47;2075823;69;20243;-77
2024/01/31 08:29:20;;;;;;;27.30;13.68;;;;;;;4.22;68.16;94276.75;2076512;69;20183;-78
2024/01/31 08:31:46;;;;;;;33.45;16.92;;;;;;;3.89;69.74;94291.91;2073222;69;20673;-77
2024/01/31 08:34:13;;;;;;;33.15;15.43;;;;;;;4.34;68.40;94289.94;2073550;69;20144;-77
2024/01/31 08:36:39;;;;;;;55.63;23.63;;;;;;;4.26;69.06;94282.72;2072435;69;20144;-77
2024/01/31 08:39:06;;;;;;;48.83;22.83;;;;;;;4.50;68.50;94284.63;2076445;69;20529;-79
2024/01/31 08:41:32;;;;;;;43.67;20.48;;;;;;;4.79;67.75;94285.66;2073980;69;20155;-76
2024/01/31 08:43:58;;;;;;;43.25;21.08;;;;;;;4.69;69.89;94290.16;2076979;69;20693;-79
2024/01/31 08:46:26;;;;;;;44.17;21.70;;;;;;;5.09;68.29;94296.50;2079080;69;20151;-77
2024/01/31 08:48:51;;;;;;;44.88;23.05;;;;;;;5.43;67.40;94293.06;2078388;69;20146;-78
2024/01/31 08:51:18;;;;;;;44.70;22.73;;;;;;;5.48;67.17;94290.13;2079084;69;20139;-81
2024/01/31 08:53:44;;;;;;;47.30;23.35;;;;;;;5.67;66.72;94295.59;2079120;69;20142;-75
2024/01/31 08:56:10;;;;;;;39.15;19.77;;;;;;;5.42;66.46;94285.97;2075898;69;20140;-77
2024/01/31 08:58:36;;;;;;;41.35;21.13;;;;;;;5.61;66.58;94290.13;2069575;69;20147;-78
2024/01/31 09:01:03;;;;;;;52.10;25.20;;;;;;;5.91;66.58;94304.97;2076005;69;20159;-76
2024/01/31 09:03:29;;;;;;;56.90;25.50;;;;;;;6.09;66.33;94290.13;2076268;69;20490;-77
2024/01/31 09:05:55;;;;;;;39.15;19.92;;;;;;;6.17;64.83;94290.94;2075091;69;20220;-76
2024/01/31 09:08:21;;;;;;;38.50;19.40;;;;;;;6.47;64.43;94290.50;2074999;69;20148;-76
2024/01/31 09:10:46;;;;;;;39.72;18.92;;;;;;;6.63;64.51;94294.16;2074976;69;20517;-77
2024/01/31 09:13:12;;;;;;;38.03;18.40;;;;;;;6.71;64.52;94291.44;2074958;69;20221;-76
2024/01/31 09:15:38;;;;;;;36.08;17.17;;;;;;;7.02;63.80;94292.44;2075529;69;20136;-77
2024/01/31 09:18:04;;;;;;;27.13;15.52;;;;;;;7.12;63.51;94291.38;2075601;69;20148;-77
2024/01/31 09:20:30;;;;;;;27.83;15.77;;;;;;;7.43;62.52;94285.97;2075772;69;20148;-77
2024/01/31 09:22:56;;;;;;;23.88;13.68;;;;;;;7.42;61.48;94298.44;2075680;69;20168;-77
2024/01/31 09:25:21;;;;;;;26.00;13.98;;;;;;;7.51;62.19;94289.53;2075655;69;20152;-77
2024/01/31 09:27:47;;;;;;;22.65;12.88;;;;;;;7.61;60.89;94307.34;2075607;69;20204;-78
2024/01/31 09:30:13;;;;;;;29.35;13.23;;;;;;;7.92;61.61;94295.50;2075657;69;20156;-82
2024/01/31 09:32:39;;;;;;;18.33;10.02;;;;;;;8.17;59.26;94298.59;2075449;69;20279;-78
2024/01/31 09:35:05;;;;;;;17.65;9.38;;;;;;;8.52;58.07;94294.94;2072347;69;20148;-78
2024/01/31 09:37:32;;;;;;;14.73;8.00;;;;;;;8.44;56.64;94297.00;2075554;69;20178;-77
2024/01/31 09:40:01;;;;;;;11.95;6.78;;;;;;;8.83;57.08;94292.88;2075745;69;20147;-78
2024/01/31 09:42:27;;;;;;;12.93;7.05;;;;;;;8.87;54.66;94286.91;2075570;69;20168;-78
2024/01/31 09:44:55;;;;;;;14.73;8.40;;;;;;;8.50;54.87;94288.38;2075563;69;20212;-77
2024/01/31 09:47:26;;;;;;;16.70;8.55;;;;;;;8.66;54.62;94275.88;2075460;69;20171;-78
2024/01/31 09:49:52;;;;;;;15.15;7.65;;;;;;;9.04;54.77;94275.84;2075677;69;20256;-78
2024/01/31 09:52:27;;;;;;;17.13;8.38;;;;;;;9.26;55.03;94277.16;2075605;69;20667;-78
2024/01/31 09:54:58;;;;;;;13.80;8.10;;;;;;;9.40;54.18;94278.41;2075589;69;20132;-78
2024/01/31 09:57:25;;;;;;;15.30;7.70;;;;;;;8.79;55.34;94272.09;2075586;69;20621;-77
2024/01/31 09:59:51;;;;;;;13.38;6.38;;;;;;;8.80;55.61;94280.00;2075595;69;20167;-77
2024/01/31 10:02:17;;;;;;;12.63;6.10;;;;;;;9.14;54.57;94268.34;2075427;69;20148;-77
2024/01/31 10:04:47;;;;;;;15.25;5.85;;;;;;;9.84;54.82;94274.53;2076727;69;20155;-78
2024/01/31 10:07:21;;;;;;;8.77;5.20;;;;;;;9.76;51.55;94271.00;2076116;69;20234;-77
2024/01/31 10:09:47;;;;;;;14.95;5.50;;;;;;;9.92;52.24;94272.44;2073546;69;20171;-79
2024/01/31 10:12:12;;;;;;;12.07;5.55;;;;;;;10.23;52.54;94263.84;2076893;69;20244;-80
2024/01/31 10:14:40;;;;;;;11.25;5.63;;;;;;;10.35;51.78;94256.47;2077113;69;20182;-76
2024/01/31 10:17:06;;;;;;;13.70;5.78;;;;;;;10.28;50.24;94249.56;2076807;69;20674;-77
2024/01/31 10:19:32;;;;;;;9.52;5.18;;;;;;;10.55;50.79;94249.78;2076877;69;20147;-77
2024/01/31 10:21:58;;;;;;;9.13;5.35;;;;;;;10.92;49.57;94227.50;2073715;69;20151;-78
2024/01/31 10:24:23;;;;;;;27.52;18.63;;;;;;;10.61;48.80;94233.38;2075373;69;20140;-79
2024/01/31 10:26:49;;;;;;;31.67;19.40;;;;;;;10.63;48.88;94222.31;2072132;69;20136;-78
2024/01/31 10:29:14;;;;;;;27.30;15.32;;;;;;;11.19;48.96;94225.56;2075441;69;20506;-77
2024/01/31 10:31:42;;;;;;;33.78;20.95;;;;;;;11.42;49.11;94204.84;2075516;69;20171;-77
2024/01/31 10:34:08;;;;;;;25.75;10.35;;;;;;;10.79;48.11;94208.84;2075476;69;20598;-80
2024/01/31 10:36:34;;;;;;;13.00;7.57;;;;;;;10.35;50.04;94200.16;2075408;69;20132;-80
2024/01/31 10:39:02;;;;;;;8.73;5.25;;;;;;;10.47;50.08;94209.66;2075431;69;20179;-79
2024/01/31 10:41:29;;;;;;;12.50;5.53;;;;;;;10.60;49.87;94200.19;2072079;69;20139;-79
2024/01/31 10:43:58;;;;;;;9.85;5.78;;;;;;;10.38;48.34;94205.41;2075565;69;20628;-78
2024/01/31 10:46:23;;;;;;;11.82;4.85;;;;;;;10.49;49.82;94201.41;2075526;69;20159;-79
2024/01/31 10:48:49;;;;;;;8.30;4.57;;;;;;;11.10;48.27;94197.28;2075394;69;20209;-79
2024/01/31 10:51:16;;;;;;;12.02;4.97;;;;;;;12.05;46.72;94212.00;2075361;69;20494;-75
2024/01/31 10:53:43;;;;;;;13.93;5.43;;;;;;;11.59;45.69;94209.72;2075420;69;20225;-78
2024/01/31 10:56:11;;;;;;;15.25;8.02;;;;;;;11.54;46.17;94207.88;2075454;69;20148;-77
2024/01/31 10:58:36;;;;;;;14.25;7.70;;;;;;;11.67;47.00;94205.47;2075380;69;20171;-77
2024/01/31 11:01:03;;;;;;;7.13;4.28;;;;;;;11.87;47.01;94208.47;2075301;69;20640;-77
2024/01/31 11:03:29;;;;;;;11.88;5.55;;;;;;;11.90;45.85;94213.69;2075347;69;20597;-80
2024/01/31 11:05:55;;;;;;;15.50;6.70;;;;;;;11.91;45.49;94200.31;2072008;69;20146;-78
2024/01/31 11:08:23;;;;;;;12.90;6.63;;;;;;;11.85;45.16;94194.94;2075400;69;20163;-80
2024/01/31 11:10:49;;;;;;;12.82;5.50;;;;;;;11.90;45.88;94184.72;2075378;69;20163;-79
2024/01/31 11:13:16;;;;;;;13.82;7.35;;;;;;;12.07;45.07;94178.28;2075175;69;20136;-80
2024/01/31 11:15:44;;;;;;;12.70;7.00;;;;;;;12.03;45.34;94173.06;2075323;69;20235;-81
2024/01/31 11:18:14;;;;;;;12.65;7.22;;;;;;;11.52;46.54;94166.19;2075266;69;20239;-81
2024/01/31 11:20:42;;;;;;;16.50;6.55;;;;;;;11.64;46.21;94161.53;2075313;69;20128;-77
2024/01/31 11:23:13;;;;;;;14.02;6.50;;;;;;;11.68;46.77;94164.66;2075418;69;20158;-78
2024/01/31 11:25:38;;;;;;;14.25;6.10;;;;;;;11.35;46.84;94169.00;2075424;69;20140;-76
2024/01/31 11:28:05;;;;;;;10.80;5.20;;;;;;;11.13;47.27;94153.84;2075343;69;20220;-79
2024/01/31 11:30:31;;;;;;;8.82;5.07;;;;;;;10.86;47.51;94159.41;2075482;69;20656;-77